Bookmark and Share
Track history (hours):
 

Seavoyager

Last reported at 2014-Apr-16 06:30 UTC. Time now 2014-Apr-17 03:53 UTC.
Position N 55°57' E 010°59'.

Length 273 m; draft 15.3 m.

Type: Ship (hazmat cat A). MMSI: 256439000.

NotesDate/timePositionNaut miles runAvg speedWind from/ knotsBaromVisibWave heightAir tempDewpointWater temp
2014-Apr-16 06:30N 55°57' E 010°59'1313.2
2014-Apr-16 05:33N 56°07' E 011°10'1313.0
2014-Apr-16 04:34N 56°18' E 011°24'2613.0
2014-Apr-16 02:33N 56°41' E 011°47'1212.1
2014-Apr-16 01:33N 56°53' E 011°47'1313.4
2014-Apr-16 00:33N 57°06' E 011°39'1313.3
2014-Apr-15 23:33N 57°18' E 011°31'1313.2
2014-Apr-15 22:33N 57°30' E 011°19'1313.2
2014-Apr-15 21:33N 57°39' E 011°02'1212.0
2014-Apr-15 20:34N 57°47' E 010°44'1111.4
2014-Apr-15 19:33N 57°47' E 010°23'1312.9
2014-Apr-15 18:33N 57°47' E 009°59'45310.3
2014-Apr-13 22:33N 51°38' E 002°24'1313.0
2014-Apr-13 21:32N 51°28' E 002°11'1110.9
2014-Apr-13 20:32N 51°17' E 002°07'1010.4
2014-Apr-13 19:33N 51°10' E 001°55'1010.0
2014-Apr-13 18:34N 51°05' E 001°42'1310.2
2014-Apr-13 17:19N 50°55' E 001°28'810.7
2014-Apr-13 16:33N 50°47' E 001°24'1211.1
2014-Apr-13 15:26N 50°37' E 001°13'1211.5
2014-Apr-13 14:23N 50°29' E 000°58'1011.7
2014-Apr-13 13:32N 50°26' E 000°44'1211.8
2014-Apr-13 12:33N 50°23' E 000°26'10414.1
2014-Apr-13 05:13N 49°58' W 002°10'  

Dump ship's entire track history

sailing weather and tide predictions

Seavoyager — 9HUM8 — position and weather